createdAt,value
2022-12-08T00:00:16.125Z,5.28
2022-12-08T00:01:16.129Z,5.27
2022-12-08T00:02:16.153Z,5.29
2022-12-08T00:03:16.239Z,5.31
2022-12-08T00:04:16.078Z,5.32
2022-12-08T00:05:16.120Z,5.33
2022-12-08T00:06:16.130Z,5.35
2022-12-08T00:07:16.077Z,5.33
2022-12-08T00:08:18.024Z,5.35
2022-12-08T00:10:47.390Z,5.39
2022-12-08T00:11:16.143Z,5.40
2022-12-08T00:12:16.132Z,5.41
2022-12-08T00:13:16.171Z,5.43
2022-12-08T00:14:16.088Z,5.45
2022-12-08T00:16:16.201Z,5.46
2022-12-08T00:17:16.097Z,5.47
2022-12-08T00:18:16.133Z,5.48
2022-12-08T00:19:16.139Z,5.50
2022-12-08T00:20:16.140Z,5.49
2022-12-08T00:21:16.172Z,5.50
2022-12-08T00:23:16.196Z,5.51
2022-12-08T00:24:16.153Z,5.50
2022-12-08T00:25:16.124Z,5.49
2022-12-08T00:26:16.160Z,5.48
2022-12-08T00:28:16.222Z,5.47
2022-12-08T00:29:17.541Z,5.46
2022-12-08T00:30:16.124Z,5.45
2022-12-08T00:31:16.268Z,5.41
2022-12-08T00:33:16.133Z,5.39
2022-12-08T00:35:16.158Z,5.36
2022-12-08T00:36:16.214Z,5.37
2022-12-08T00:37:16.150Z,5.39
2022-12-08T00:39:16.229Z,5.41
2022-12-08T00:40:16.159Z,5.42
2022-12-08T00:41:16.164Z,5.44
2022-12-08T00:42:16.154Z,5.42
2022-12-08T00:43:16.191Z,5.41
2022-12-08T00:44:16.237Z,5.39
2022-12-08T00:45:18.174Z,5.37
2022-12-08T00:46:16.310Z,5.38
2022-12-08T00:48:16.219Z,5.37
2022-12-08T00:49:16.296Z,5.38
2022-12-08T00:50:16.216Z,5.41
2022-12-08T00:51:16.225Z,5.40
2022-12-08T00:52:16.195Z,5.39
2022-12-08T00:53:16.191Z,5.40
2022-12-08T00:54:16.245Z,5.39
2022-12-08T00:55:16.188Z,5.38
2022-12-08T00:56:16.239Z,5.35
2022-12-08T00:57:16.274Z,5.32
2022-12-08T00:58:16.229Z,5.28
2022-12-08T00:59:16.224Z,5.27
2022-12-08T01:01:16.321Z,5.26
2022-12-08T01:02:16.248Z,5.27
2022-12-08T01:03:16.319Z,5.26
2022-12-08T01:04:16.318Z,5.27
2022-12-08T01:05:16.222Z,5.28
2022-12-08T01:06:16.209Z,5.27
2022-12-08T01:09:16.228Z,5.26
2022-12-08T01:10:16.220Z,5.27
2022-12-08T01:13:16.272Z,5.22
2022-12-08T01:14:16.255Z,5.21
2022-12-08T01:15:16.275Z,5.22
2022-12-08T01:16:16.311Z,5.24
2022-12-08T01:17:16.324Z,5.26
2022-12-08T01:22:18.445Z,5.25
2022-12-08T01:23:16.254Z,5.24
2022-12-08T01:24:16.307Z,5.22
2022-12-08T01:25:16.300Z,5.21
2022-12-08T01:26:16.260Z,5.19
2022-12-08T01:27:16.269Z,5.14
2022-12-08T01:28:16.291Z,5.09
2022-12-08T01:29:16.310Z,5.10
2022-12-08T01:30:16.313Z,5.12
2022-12-08T01:32:16.324Z,5.13
2022-12-08T01:34:16.307Z,5.14
2022-12-08T01:35:16.332Z,5.16
2022-12-08T01:36:16.291Z,5.13
2022-12-08T01:38:16.325Z,5.12
2022-12-08T01:39:16.289Z,5.10
2022-12-08T01:40:16.390Z,5.07
2022-12-08T01:41:16.295Z,5.00
2022-12-08T01:42:16.341Z,4.92
2022-12-08T01:43:16.364Z,4.87
2022-12-08T01:45:16.379Z,4.85
2022-12-08T01:46:16.384Z,4.89
2022-12-08T01:47:16.349Z,4.93
2022-12-08T01:48:16.446Z,4.95
2022-12-08T01:49:16.346Z,4.97
2022-12-08T01:50:16.415Z,4.98
2022-12-08T01:51:16.383Z,5.00
2022-12-08T01:52:16.338Z,5.02
2022-12-08T01:55:16.374Z,5.03
2022-12-08T01:57:16.386Z,5.01
2022-12-08T01:58:16.377Z,5.02
2022-12-08T02:00:16.383Z,5.04
2022-12-08T02:01:16.404Z,5.06
2022-12-08T02:02:16.495Z,5.09
2022-12-08T02:03:16.408Z,5.11
2022-12-08T02:06:16.387Z,5.09
2022-12-08T02:07:16.393Z,5.08
2022-12-08T02:08:16.620Z,5.06
2022-12-08T02:09:16.416Z,5.05
2022-12-08T02:10:16.404Z,5.07
2022-12-08T02:11:16.454Z,5.06
2022-12-08T02:12:16.391Z,5.01
2022-12-08T02:13:16.434Z,4.98
2022-12-08T02:14:16.382Z,4.94
2022-12-08T02:15:16.424Z,4.87
2022-12-08T02:16:16.560Z,4.77
2022-12-08T02:17:16.424Z,4.71
2022-12-08T02:18:16.383Z,4.65
2022-12-08T02:19:31.674Z,4.66
2022-12-08T02:20:16.435Z,4.65
2022-12-08T02:21:16.459Z,4.67
2022-12-08T02:22:16.421Z,4.71
2022-12-08T02:23:16.401Z,4.76
2022-12-08T02:24:16.407Z,4.80
2022-12-08T02:25:16.455Z,4.84
2022-12-08T02:26:16.485Z,4.87
2022-12-08T02:27:16.458Z,4.77
2022-12-08T02:28:16.453Z,4.66
2022-12-08T02:29:16.493Z,4.68
2022-12-08T02:30:16.475Z,4.73
2022-12-08T02:31:16.512Z,4.65
2022-12-08T02:32:16.469Z,4.62
2022-12-08T02:33:16.462Z,4.61
2022-12-08T02:34:16.496Z,4.67
2022-12-08T02:35:16.469Z,4.70
2022-12-08T02:36:18.839Z,4.75
2022-12-08T02:37:16.510Z,4.80
2022-12-08T02:38:16.453Z,4.79
2022-12-08T02:39:16.485Z,4.83
2022-12-08T02:40:16.485Z,4.78
2022-12-08T02:41:16.452Z,4.76
2022-12-08T02:42:16.500Z,4.78
2022-12-08T02:43:16.493Z,4.79
2022-12-08T02:44:16.483Z,4.82
2022-12-08T02:45:16.506Z,4.84
2022-12-08T02:46:16.556Z,4.86
2022-12-08T02:47:16.484Z,4.88
2022-12-08T02:48:16.461Z,4.91
2022-12-08T02:49:16.465Z,4.92
2022-12-08T02:50:16.485Z,4.95
2022-12-08T02:51:16.461Z,4.97
2022-12-08T02:52:16.525Z,4.96
2022-12-08T02:53:16.498Z,4.99
2022-12-08T02:54:16.543Z,4.96
2022-12-08T02:55:16.471Z,4.94
2022-12-08T02:56:16.495Z,4.95
2022-12-08T02:57:16.532Z,4.96
2022-12-08T02:59:16.573Z,4.98
2022-12-08T03:00:16.494Z,5.02
2022-12-08T03:01:16.585Z,5.06
2022-12-08T03:02:16.569Z,5.08
2022-12-08T03:03:16.491Z,5.09
2022-12-08T03:04:16.551Z,5.10
2022-12-08T03:05:16.530Z,5.12
2022-12-08T03:07:16.579Z,5.13
2022-12-08T03:08:16.731Z,5.10
2022-12-08T03:10:16.526Z,5.11
2022-12-08T03:12:16.603Z,5.12
2022-12-08T03:13:19.018Z,5.14
2022-12-08T03:14:16.596Z,5.13
2022-12-08T03:15:16.533Z,5.14
2022-12-08T03:16:16.597Z,5.13
2022-12-08T03:17:16.591Z,5.12
2022-12-08T03:18:16.524Z,5.13
2022-12-08T03:19:16.527Z,5.12
2022-12-08T03:20:16.588Z,5.11
2022-12-08T03:21:16.563Z,5.10
2022-12-08T03:22:16.631Z,5.08
2022-12-08T03:23:16.580Z,5.07
2022-12-08T03:24:16.587Z,5.09
2022-12-08T03:25:16.625Z,5.12
2022-12-08T03:26:16.546Z,5.13
2022-12-08T03:28:16.599Z,5.11
2022-12-08T03:29:16.586Z,5.09
2022-12-08T03:30:16.595Z,5.10
2022-12-08T03:32:16.615Z,5.08
2022-12-08T03:33:16.562Z,5.06
2022-12-08T03:34:16.581Z,5.08
2022-12-08T03:35:16.620Z,5.05
2022-12-08T03:36:16.571Z,5.04
2022-12-08T03:38:16.602Z,5.01
2022-12-08T03:39:16.634Z,4.99
2022-12-08T03:40:16.607Z,5.00
2022-12-08T03:42:16.674Z,5.02
2022-12-08T03:43:16.629Z,5.03
2022-12-08T03:44:16.603Z,5.01
2022-12-08T03:45:16.645Z,5.02
2022-12-08T03:46:16.715Z,5.03
2022-12-08T03:47:16.665Z,5.06
2022-12-08T03:50:19.310Z,5.02
2022-12-08T03:51:16.641Z,4.99
2022-12-08T03:52:16.657Z,4.98
2022-12-08T03:53:16.607Z,4.99
2022-12-08T03:54:16.620Z,5.02
2022-12-08T03:55:16.663Z,5.05
2022-12-08T03:56:16.658Z,5.08
2022-12-08T03:57:16.662Z,5.11
2022-12-08T03:58:16.651Z,5.13
2022-12-08T03:59:16.663Z,5.15
2022-12-08T04:00:16.662Z,5.13
2022-12-08T04:01:16.667Z,5.04
2022-12-08T04:02:16.748Z,4.95
2022-12-08T04:03:16.793Z,4.89
2022-12-08T04:04:16.672Z,4.85
2022-12-08T04:07:16.657Z,4.89
2022-12-08T04:08:16.775Z,4.94
2022-12-08T04:09:16.665Z,4.97
2022-12-08T04:10:16.730Z,5.01
2022-12-08T04:11:16.669Z,5.04
2022-12-08T04:12:16.720Z,5.02
2022-12-08T04:13:16.723Z,4.96
2022-12-08T04:14:16.671Z,4.79
2022-12-08T04:15:16.738Z,4.63
2022-12-08T04:16:16.797Z,4.62
2022-12-08T04:17:16.709Z,4.64
2022-12-08T04:18:16.766Z,4.69
2022-12-08T04:19:16.709Z,4.76
2022-12-08T04:20:16.683Z,4.83
2022-12-08T04:21:16.684Z,4.88
2022-12-08T04:22:16.690Z,4.91
2022-12-08T04:23:16.765Z,4.93
2022-12-08T04:24:16.719Z,4.91
2022-12-08T04:25:16.716Z,4.93
2022-12-08T04:26:16.742Z,4.96
2022-12-08T04:27:19.490Z,5.01
2022-12-08T04:28:16.767Z,5.05
2022-12-08T04:29:16.734Z,5.07
2022-12-08T04:30:16.753Z,5.09
2022-12-08T04:31:16.796Z,5.11
2022-12-08T04:32:16.730Z,5.14
2022-12-08T04:33:16.723Z,5.17
2022-12-08T04:34:16.703Z,5.19
2022-12-08T04:35:16.749Z,5.21
2022-12-08T04:36:16.810Z,5.22
2022-12-08T04:37:16.744Z,5.25
2022-12-08T04:38:16.773Z,5.27
2022-12-08T04:40:16.750Z,5.29
2022-12-08T04:42:16.735Z,5.31
2022-12-08T04:43:16.745Z,5.28
2022-12-08T04:44:16.733Z,5.26
2022-12-08T04:45:16.750Z,5.25
2022-12-08T04:47:16.880Z,5.26
2022-12-08T04:48:16.749Z,5.25
2022-12-08T04:51:16.795Z,5.27
2022-12-08T04:52:16.789Z,5.28
2022-12-08T04:53:16.755Z,5.29
2022-12-08T04:56:16.779Z,5.28
2022-12-08T04:57:16.827Z,5.29
2022-12-08T04:59:16.842Z,5.28
2022-12-08T05:00:16.812Z,5.24
2022-12-08T05:01:16.882Z,5.23
2022-12-08T05:02:16.998Z,5.21
2022-12-08T05:03:16.828Z,5.20
2022-12-08T05:04:19.738Z,5.19
2022-12-08T05:05:16.796Z,5.18
2022-12-08T05:06:16.783Z,5.17
2022-12-08T05:07:16.840Z,5.16
2022-12-08T05:08:16.946Z,5.17
2022-12-08T05:09:16.866Z,5.16
2022-12-08T05:13:16.857Z,5.17
2022-12-08T05:14:16.886Z,5.16
2022-12-08T05:15:16.805Z,5.14
2022-12-08T05:16:16.896Z,5.13
2022-12-08T05:17:16.892Z,5.12
2022-12-08T05:19:16.823Z,5.11
2022-12-08T05:20:16.858Z,5.12
2022-12-08T05:21:16.820Z,5.13
2022-12-08T05:24:16.880Z,5.10
2022-12-08T05:25:16.921Z,5.09
2022-12-08T05:26:16.828Z,5.11
2022-12-08T05:27:16.917Z,5.13
2022-12-08T05:28:40.846Z,5.14
2022-12-08T05:29:16.883Z,5.15
2022-12-08T05:30:16.899Z,5.17
2022-12-08T05:31:16.945Z,5.18
2022-12-08T05:34:16.851Z,5.19
2022-12-08T05:35:16.943Z,5.18
2022-12-08T05:37:16.873Z,5.19
2022-12-08T05:38:16.869Z,5.21
2022-12-08T05:41:19.971Z,5.22
2022-12-08T05:42:21.729Z,5.21
2022-12-08T05:43:16.920Z,5.22
2022-12-08T05:44:16.912Z,5.23
2022-12-08T05:46:16.964Z,5.22
2022-12-08T05:47:16.947Z,5.21
2022-12-08T05:49:16.942Z,5.20
2022-12-08T05:50:16.940Z,5.21
2022-12-08T05:51:16.946Z,5.22
2022-12-08T05:53:16.916Z,5.20
2022-12-08T05:54:16.940Z,5.16
2022-12-08T05:56:16.953Z,5.15
2022-12-08T05:57:16.959Z,5.14
2022-12-08T05:58:16.996Z,5.12
2022-12-08T05:59:16.916Z,5.10
2022-12-08T06:00:16.922Z,5.08
2022-12-08T06:01:16.960Z,5.07
2022-12-08T06:02:17.045Z,5.04
2022-12-08T06:03:17.110Z,5.03
2022-12-08T06:04:16.967Z,5.05
2022-12-08T06:05:16.946Z,5.07
2022-12-08T06:06:16.928Z,5.05
2022-12-08T06:07:16.933Z,5.06
2022-12-08T06:08:17.017Z,5.09
2022-12-08T06:09:16.997Z,5.12
2022-12-08T06:12:16.991Z,5.14
2022-12-08T06:13:16.986Z,5.13
2022-12-08T06:14:17.008Z,5.11
2022-12-08T06:15:16.976Z,5.10
2022-12-08T06:16:17.089Z,5.08
2022-12-08T06:17:17.007Z,5.06
2022-12-08T06:18:20.260Z,5.04
2022-12-08T06:19:16.966Z,5.03
2022-12-08T06:21:17.073Z,5.01
2022-12-08T06:24:16.981Z,4.99
2022-12-08T06:25:17.031Z,4.97
2022-12-08T06:26:17.049Z,4.99
2022-12-08T06:27:17.043Z,5.00
2022-12-08T06:28:17.058Z,4.99
2022-12-08T06:29:17.005Z,5.00
2022-12-08T06:30:17.009Z,4.99
2022-12-08T06:31:17.184Z,4.94
2022-12-08T06:32:17.149Z,4.95
2022-12-08T06:33:17.119Z,4.93
2022-12-08T06:34:17.003Z,4.92
2022-12-08T06:35:17.037Z,4.91
2022-12-08T06:36:17.052Z,4.88
2022-12-08T06:38:17.053Z,4.86
2022-12-08T06:39:17.077Z,4.84
2022-12-08T06:41:17.096Z,4.86
2022-12-08T06:42:17.026Z,4.89
2022-12-08T06:43:17.105Z,4.91
2022-12-08T06:44:17.061Z,4.92
2022-12-08T06:49:17.056Z,4.93
2022-12-08T06:50:17.063Z,4.89
2022-12-08T06:51:17.078Z,4.86
2022-12-08T06:52:17.090Z,4.80
2022-12-08T06:53:17.098Z,4.71
2022-12-08T06:54:17.123Z,4.67
2022-12-08T06:55:42.685Z,4.66
2022-12-08T06:56:17.063Z,4.64
2022-12-08T06:57:17.076Z,4.62
2022-12-08T06:58:17.066Z,4.61
2022-12-08T06:59:17.099Z,4.63
2022-12-08T07:00:17.096Z,4.68
2022-12-08T07:01:17.141Z,4.72
2022-12-08T07:02:17.165Z,4.73
2022-12-08T07:03:17.120Z,4.70
2022-12-08T07:04:17.151Z,4.69
2022-12-08T07:05:17.104Z,4.70
2022-12-08T07:06:17.086Z,4.71
2022-12-08T07:07:17.113Z,4.75
2022-12-08T07:08:17.164Z,4.80
2022-12-08T07:09:17.139Z,4.84
2022-12-08T07:10:17.089Z,4.77
2022-12-08T07:11:21.398Z,4.61
2022-12-08T07:12:17.087Z,4.55
2022-12-08T07:13:17.207Z,4.57
2022-12-08T07:14:17.177Z,4.59
2022-12-08T07:15:17.118Z,4.61
2022-12-08T07:16:17.200Z,4.63
2022-12-08T07:17:17.179Z,4.68
2022-12-08T07:18:17.159Z,4.74
2022-12-08T07:19:17.206Z,4.77
2022-12-08T07:20:17.156Z,4.79
2022-12-08T07:21:17.179Z,4.73
2022-12-08T07:22:17.180Z,4.56
2022-12-08T07:23:17.163Z,4.51
2022-12-08T07:24:17.174Z,4.49
2022-12-08T07:25:17.116Z,4.47
2022-12-08T07:26:17.125Z,4.49
2022-12-08T07:27:17.138Z,4.52
2022-12-08T07:28:17.189Z,4.59
2022-12-08T07:29:21.642Z,4.66
2022-12-08T07:30:17.169Z,4.76
2022-12-08T07:31:17.264Z,4.83
2022-12-08T07:32:20.708Z,4.90
2022-12-08T07:33:17.187Z,4.94
2022-12-08T07:34:17.219Z,4.96
2022-12-08T07:35:17.189Z,5.01
2022-12-08T07:36:17.162Z,5.05
2022-12-08T07:37:17.195Z,5.09
2022-12-08T07:38:17.144Z,5.12
2022-12-08T07:39:17.181Z,5.13
2022-12-08T07:40:17.205Z,5.15
2022-12-08T07:41:17.244Z,5.18
2022-12-08T07:42:17.240Z,5.21
2022-12-08T07:43:17.163Z,5.24
2022-12-08T07:45:17.183Z,5.23
2022-12-08T07:46:17.295Z,5.24
2022-12-08T07:47:17.232Z,5.30
2022-12-08T07:48:17.177Z,5.36
2022-12-08T07:49:17.179Z,5.34
2022-12-08T07:50:17.253Z,5.31
2022-12-08T07:51:17.206Z,5.29
2022-12-08T07:52:17.259Z,5.31
2022-12-08T07:55:17.287Z,5.36
2022-12-08T07:56:17.236Z,5.41
2022-12-08T07:57:17.235Z,5.44
2022-12-08T07:58:17.224Z,5.47
2022-12-08T07:59:17.252Z,5.51
2022-12-08T08:00:17.537Z,5.55
2022-12-08T08:01:17.332Z,5.57
2022-12-08T08:02:23.622Z,5.59
2022-12-08T08:03:17.283Z,5.62
2022-12-08T08:04:17.299Z,5.68
2022-12-08T08:05:17.287Z,5.70
2022-12-08T08:06:17.260Z,5.71
2022-12-08T08:08:17.350Z,5.73
2022-12-08T08:09:20.894Z,5.76
2022-12-08T08:10:17.252Z,5.79
2022-12-08T08:13:17.285Z,5.84
2022-12-08T08:14:17.281Z,5.86
2022-12-08T08:15:17.334Z,5.87
2022-12-08T08:16:17.462Z,5.88
2022-12-08T08:17:17.360Z,5.89
2022-12-08T08:18:17.305Z,5.87
2022-12-08T08:19:17.313Z,5.86
2022-12-08T08:20:17.308Z,5.87
2022-12-08T08:22:17.278Z,5.85
2022-12-08T08:24:17.346Z,5.83
2022-12-08T08:25:17.288Z,5.82
2022-12-08T08:26:17.323Z,5.78
2022-12-08T08:27:17.284Z,5.75
2022-12-08T08:28:17.309Z,5.72
2022-12-08T08:29:17.337Z,5.67
2022-12-08T08:30:20.803Z,5.61
2022-12-08T08:31:17.379Z,5.58
2022-12-08T08:32:17.312Z,5.56
2022-12-08T08:34:17.322Z,5.54
2022-12-08T08:35:17.328Z,5.52
2022-12-08T08:36:17.436Z,5.53
2022-12-08T08:37:17.393Z,5.54
2022-12-08T08:38:17.335Z,5.55
2022-12-08T08:40:17.360Z,5.58
2022-12-08T08:41:17.363Z,5.64
2022-12-08T08:42:17.395Z,5.67
2022-12-08T08:43:17.400Z,5.70
2022-12-08T08:44:17.366Z,5.73
2022-12-08T08:45:17.375Z,5.74
2022-12-08T08:46:21.185Z,5.77
2022-12-08T08:47:17.367Z,5.83
2022-12-08T08:48:17.365Z,5.87
2022-12-08T08:49:17.346Z,5.89
2022-12-08T08:50:17.372Z,5.88
2022-12-08T08:51:17.411Z,5.76
2022-12-08T08:52:17.351Z,5.70
2022-12-08T08:54:17.416Z,5.75
2022-12-08T08:55:17.337Z,5.81
2022-12-08T08:56:17.449Z,5.89
2022-12-08T08:57:20.731Z,6.02
2022-12-08T08:58:17.389Z,6.09
2022-12-08T08:59:17.405Z,6.11
2022-12-08T09:01:17.457Z,6.13
2022-12-08T09:02:17.500Z,6.18
2022-12-08T09:03:17.408Z,6.22
2022-12-08T09:04:17.513Z,6.31
2022-12-08T09:05:17.423Z,6.42
2022-12-08T09:06:17.462Z,6.52
2022-12-08T09:07:17.389Z,6.61
2022-12-08T09:08:17.512Z,6.67
2022-12-08T09:09:17.410Z,6.74
2022-12-08T09:10:17.365Z,6.81
2022-12-08T09:11:17.411Z,6.89
2022-12-08T09:12:17.399Z,6.94
2022-12-08T09:13:17.388Z,7.01
2022-12-08T09:14:17.443Z,7.03
2022-12-08T09:15:17.449Z,7.06
2022-12-08T09:16:17.528Z,7.07
2022-12-08T09:17:17.425Z,7.06
2022-12-08T09:18:17.419Z,7.09
2022-12-08T09:19:17.392Z,7.13
2022-12-08T09:20:17.412Z,7.12
2022-12-08T09:21:17.462Z,7.11
2022-12-08T09:22:17.433Z,7.08
2022-12-08T09:24:17.448Z,7.05
2022-12-08T09:25:17.406Z,7.02
2022-12-08T09:26:17.547Z,7.00
2022-12-08T09:27:17.418Z,6.98
2022-12-08T09:28:17.421Z,6.99
2022-12-08T09:29:17.480Z,7.03
2022-12-08T09:31:17.561Z,6.99
2022-12-08T09:32:17.488Z,6.98
2022-12-08T09:33:17.474Z,7.01
2022-12-08T09:35:17.451Z,6.99
2022-12-08T09:36:17.491Z,6.97
2022-12-08T09:37:17.483Z,6.99
2022-12-08T09:38:17.463Z,7.04
2022-12-08T09:39:17.484Z,7.09
2022-12-08T09:40:17.455Z,7.12
2022-12-08T09:41:17.517Z,7.17
2022-12-08T09:42:17.552Z,7.23
2022-12-08T09:43:17.507Z,7.29
2022-12-08T09:44:17.555Z,7.35
2022-12-08T09:45:17.471Z,7.34
2022-12-08T09:47:17.543Z,7.40
2022-12-08T09:48:17.481Z,7.48
2022-12-08T09:49:17.544Z,7.67
2022-12-08T09:50:17.508Z,7.75
2022-12-08T09:51:17.484Z,7.80
2022-12-08T09:52:17.521Z,7.85
2022-12-08T09:53:17.498Z,7.91
2022-12-08T09:54:17.554Z,7.96
2022-12-08T09:55:17.522Z,8.05
2022-12-08T09:56:17.540Z,8.08
2022-12-08T09:57:17.521Z,8.12
2022-12-08T09:58:17.534Z,8.11
2022-12-08T09:59:17.534Z,8.14
2022-12-08T10:00:21.658Z,8.18
2022-12-08T10:01:17.565Z,8.20
2022-12-08T10:02:17.601Z,8.21
2022-12-08T10:03:17.524Z,8.23
2022-12-08T10:04:17.624Z,8.21
2022-12-08T10:05:17.624Z,8.22
2022-12-08T10:06:17.560Z,8.23
2022-12-08T10:09:22.676Z,8.19
2022-12-08T10:10:17.573Z,8.13
2022-12-08T10:11:17.572Z,8.08
2022-12-08T10:12:17.573Z,8.01
2022-12-08T10:13:17.591Z,7.97
2022-12-08T10:14:17.606Z,7.94
2022-12-08T10:15:17.576Z,7.95
2022-12-08T10:18:17.604Z,7.94
2022-12-08T10:19:17.613Z,7.91
2022-12-08T10:20:17.550Z,7.87
2022-12-08T10:21:17.560Z,7.83
2022-12-08T10:22:17.644Z,7.85
2022-12-08T10:23:17.552Z,7.87
2022-12-08T10:24:17.677Z,7.86
2022-12-08T10:25:17.574Z,7.84
2022-12-08T10:27:17.630Z,7.85
2022-12-08T10:28:17.574Z,7.82
2022-12-08T10:29:17.621Z,7.79
2022-12-08T10:32:17.640Z,7.78
2022-12-08T10:33:17.630Z,7.75
2022-12-08T10:34:17.670Z,7.74
2022-12-08T10:35:17.592Z,7.71
2022-12-08T10:36:17.636Z,7.67
2022-12-08T10:37:21.792Z,7.62
2022-12-08T10:38:17.627Z,7.57
2022-12-08T10:39:17.625Z,7.53
2022-12-08T10:40:17.611Z,7.50
2022-12-08T10:41:17.643Z,7.49
2022-12-08T10:43:17.686Z,7.44
2022-12-08T10:44:17.671Z,7.45
2022-12-08T10:45:17.642Z,7.47
2022-12-08T10:46:17.710Z,7.49
2022-12-08T10:47:17.661Z,7.50
2022-12-08T10:48:18.912Z,7.51
2022-12-08T10:50:17.696Z,7.50
2022-12-08T10:51:17.655Z,7.48
2022-12-08T10:52:17.700Z,7.45
2022-12-08T10:53:17.645Z,7.42
2022-12-08T10:55:17.715Z,7.40
2022-12-08T10:56:17.694Z,7.37
2022-12-08T10:57:17.767Z,7.36
2022-12-08T10:59:17.682Z,7.28
2022-12-08T11:00:18.139Z,7.23
2022-12-08T11:01:17.830Z,7.16
2022-12-08T11:02:17.837Z,7.05
2022-12-08T11:03:17.668Z,6.86
2022-12-08T11:04:17.669Z,6.77
2022-12-08T11:05:17.653Z,6.74
2022-12-08T11:06:17.695Z,6.73
2022-12-08T11:07:17.706Z,6.75
2022-12-08T11:08:17.743Z,6.77
2022-12-08T11:09:17.711Z,6.83
2022-12-08T11:10:17.698Z,6.81
2022-12-08T11:12:17.879Z,6.85
2022-12-08T11:13:17.692Z,6.93
2022-12-08T11:14:21.998Z,6.99
2022-12-08T11:15:17.721Z,7.03
2022-12-08T11:16:17.738Z,7.06
2022-12-08T11:17:17.910Z,7.12
2022-12-08T11:19:17.712Z,7.09
2022-12-08T11:20:17.795Z,7.03
2022-12-08T11:21:17.716Z,6.93
2022-12-08T11:22:17.717Z,6.79
2022-12-08T11:23:17.752Z,6.81
2022-12-08T11:24:17.745Z,6.82
2022-12-08T11:25:17.739Z,6.88
2022-12-08T11:26:18.736Z,6.93
2022-12-08T11:27:17.768Z,6.96
2022-12-08T11:28:17.789Z,6.98
2022-12-08T11:29:17.769Z,7.00
2022-12-08T11:30:18.427Z,7.02
2022-12-08T11:31:17.795Z,7.05
2022-12-08T11:32:17.769Z,7.11
2022-12-08T11:33:17.810Z,7.16
2022-12-08T11:34:17.791Z,7.22
2022-12-08T11:35:17.781Z,7.29
2022-12-08T11:36:17.765Z,7.37
2022-12-08T11:37:17.771Z,7.46
2022-12-08T11:38:20.981Z,7.55
2022-12-08T11:39:17.790Z,7.63
2022-12-08T11:40:17.801Z,7.70
2022-12-08T11:41:17.797Z,7.78
2022-12-08T11:42:17.799Z,7.87
2022-12-08T11:43:17.823Z,7.90
2022-12-08T11:44:17.805Z,7.96
2022-12-08T11:45:17.819Z,8.00
2022-12-08T11:46:17.836Z,8.05
2022-12-08T11:47:17.802Z,8.07
2022-12-08T11:48:17.822Z,8.03
2022-12-08T11:49:17.771Z,8.00
2022-12-08T11:50:19.551Z,7.97
2022-12-08T11:51:22.237Z,7.95
2022-12-08T11:52:17.772Z,7.93
2022-12-08T11:53:17.808Z,7.92
2022-12-08T11:54:17.810Z,7.89
2022-12-08T11:55:17.874Z,7.88
2022-12-08T11:57:17.827Z,7.90
2022-12-08T12:00:18.093Z,7.92
2022-12-08T12:01:17.801Z,7.89
2022-12-08T12:02:17.896Z,7.86
2022-12-08T12:03:17.981Z,7.85
2022-12-08T12:04:17.807Z,7.84
2022-12-08T12:05:33.245Z,7.82
2022-12-08T12:06:37.614Z,7.83
2022-12-08T12:07:23.059Z,7.85
2022-12-08T12:09:17.820Z,7.86
2022-12-08T12:10:17.866Z,7.88
2022-12-08T12:11:17.835Z,7.80
2022-12-08T12:12:17.849Z,7.75
2022-12-08T12:13:17.858Z,7.76
2022-12-08T12:14:17.830Z,7.81
2022-12-08T12:15:17.828Z,7.84
2022-12-08T12:16:17.877Z,7.91
2022-12-08T12:17:17.844Z,7.95
2022-12-08T12:18:17.918Z,7.96
2022-12-08T12:19:17.840Z,8.00
2022-12-08T12:20:17.881Z,8.04
2022-12-08T12:21:17.905Z,8.08
2022-12-08T12:22:17.860Z,8.11
2022-12-08T12:23:17.859Z,8.16
2022-12-08T12:24:22.326Z,8.18
2022-12-08T12:27:17.921Z,8.17
2022-12-08T12:28:22.472Z,8.16
2022-12-08T12:29:17.931Z,8.13
2022-12-08T12:30:17.889Z,8.11
2022-12-08T12:32:17.918Z,8.13
2022-12-08T12:33:17.909Z,8.16
2022-12-08T12:34:17.963Z,8.19
2022-12-08T12:35:18.106Z,8.23
2022-12-08T12:36:17.938Z,8.25
2022-12-08T12:37:17.886Z,8.26
2022-12-08T12:38:17.886Z,8.31
2022-12-08T12:39:17.927Z,8.36
2022-12-08T12:40:17.951Z,8.40
2022-12-08T12:41:22.421Z,8.42
2022-12-08T12:42:17.960Z,8.44
2022-12-08T12:43:17.928Z,8.45
2022-12-08T12:44:17.980Z,8.47
2022-12-08T12:45:17.948Z,8.46
2022-12-08T12:46:17.988Z,8.42
2022-12-08T12:48:17.914Z,8.40
2022-12-08T12:49:17.934Z,8.41
2022-12-08T12:50:17.906Z,8.40
2022-12-08T12:52:17.945Z,8.38
2022-12-08T12:53:17.922Z,8.37
2022-12-08T12:54:17.968Z,8.35
2022-12-08T12:55:17.989Z,8.32
2022-12-08T12:56:17.961Z,8.33
2022-12-08T12:58:18.078Z,8.32
2022-12-08T13:00:17.930Z,8.34
2022-12-08T13:01:18.077Z,8.36
2022-12-08T13:02:18.067Z,8.40
2022-12-08T13:03:17.940Z,8.42
2022-12-08T13:04:18.048Z,8.39
2022-12-08T13:05:22.730Z,8.31
2022-12-08T13:06:18.016Z,8.27
2022-12-08T13:07:17.970Z,8.26
2022-12-08T13:08:18.110Z,8.29
2022-12-08T13:09:18.047Z,8.32
2022-12-08T13:10:17.999Z,8.37
2022-12-08T13:11:18.052Z,8.41
2022-12-08T13:12:17.979Z,8.46
2022-12-08T13:13:18.012Z,8.52
2022-12-08T13:14:18.060Z,8.55
2022-12-08T13:16:19.620Z,8.54
2022-12-08T13:17:18.082Z,8.52
2022-12-08T13:18:18.018Z,8.49
2022-12-08T13:19:18.079Z,8.50
2022-12-08T13:20:17.988Z,8.49
2022-12-08T13:21:18.018Z,8.47
2022-12-08T13:23:18.042Z,8.44
2022-12-08T13:24:18.097Z,8.43
2022-12-08T13:25:18.048Z,8.39
2022-12-08T13:26:18.029Z,8.36
2022-12-08T13:27:18.002Z,8.31
2022-12-08T13:28:18.036Z,8.30
2022-12-08T13:30:18.032Z,8.28
2022-12-08T13:31:18.183Z,8.22
2022-12-08T13:32:18.001Z,8.20
2022-12-08T13:33:18.946Z,8.18
2022-12-08T13:34:18.111Z,8.17
2022-12-08T13:35:18.018Z,8.16
2022-12-08T13:36:18.117Z,8.19
2022-12-08T13:37:18.064Z,8.22
2022-12-08T13:38:18.071Z,8.23
2022-12-08T13:39:18.108Z,8.24
2022-12-08T13:40:18.048Z,8.26
2022-12-08T13:41:18.057Z,8.25
2022-12-08T13:42:22.916Z,8.24
2022-12-08T13:45:17.885Z,8.26
2022-12-08T13:45:33.435Z,8.24
2022-12-08T13:48:35.134Z,8.27
2022-12-08T13:55:12.233Z,8.33
2022-12-08T13:56:37.481Z,8.34
2022-12-08T13:57:01.272Z,8.33
2022-12-08T13:58:18.187Z,8.32
2022-12-08T14:02:18.266Z,8.30
2022-12-08T14:03:18.145Z,8.27
2022-12-08T14:04:54.498Z,8.25
2022-12-08T14:05:20.384Z,8.22
2022-12-08T14:06:18.428Z,8.21
2022-12-08T14:07:18.181Z,8.18
2022-12-08T14:08:25.251Z,8.15
2022-12-08T14:09:18.262Z,8.11
2022-12-08T14:10:18.154Z,8.09
2022-12-08T14:11:18.160Z,8.07
2022-12-08T14:12:18.113Z,8.04
2022-12-08T14:13:18.152Z,8.02
2022-12-08T14:14:32.665Z,7.97
2022-12-08T14:15:18.518Z,7.93
2022-12-08T14:16:18.280Z,7.92
2022-12-08T14:17:18.177Z,7.91
2022-12-08T14:18:18.187Z,7.90
2022-12-08T14:19:23.177Z,7.89
2022-12-08T14:21:21.569Z,7.88
2022-12-08T14:22:18.131Z,7.86
2022-12-08T14:23:18.169Z,7.83
2022-12-08T14:24:18.174Z,7.79
2022-12-08T14:25:18.236Z,7.73
2022-12-08T14:26:18.175Z,7.70
2022-12-08T14:27:18.230Z,7.68
2022-12-08T14:28:18.202Z,7.66
2022-12-08T14:30:18.206Z,7.65
2022-12-08T14:32:18.235Z,7.62
2022-12-08T14:33:18.178Z,7.60
2022-12-08T14:34:18.182Z,7.58
2022-12-08T14:35:18.248Z,7.57
2022-12-08T14:36:18.209Z,7.55
2022-12-08T14:37:18.205Z,7.52
2022-12-08T14:38:18.328Z,7.50
2022-12-08T14:39:18.227Z,7.52
2022-12-08T14:40:22.732Z,7.50
2022-12-08T14:41:18.220Z,7.48
2022-12-08T14:42:18.194Z,7.44
2022-12-08T14:43:18.255Z,7.41
2022-12-08T14:44:18.231Z,7.37
2022-12-08T14:45:18.235Z,7.35
2022-12-08T14:47:18.244Z,7.33
2022-12-08T14:48:18.271Z,7.28
2022-12-08T14:49:18.215Z,7.24
2022-12-08T14:51:18.261Z,7.22
2022-12-08T14:52:18.248Z,7.21
2022-12-08T14:53:18.408Z,7.18
2022-12-08T14:54:18.289Z,7.16
2022-12-08T14:56:18.274Z,7.13
2022-12-08T14:57:18.272Z,7.10
2022-12-08T14:59:18.274Z,7.07
2022-12-08T15:00:18.300Z,7.05
2022-12-08T15:01:18.352Z,7.03
2022-12-08T15:03:18.297Z,7.00
2022-12-08T15:05:18.476Z,7.01
2022-12-08T15:06:18.270Z,6.99
2022-12-08T15:07:18.292Z,6.95
2022-12-08T15:08:18.424Z,6.92
2022-12-08T15:09:18.288Z,6.89
2022-12-08T15:10:18.286Z,6.86
2022-12-08T15:11:18.256Z,6.84
2022-12-08T15:12:23.170Z,6.80
2022-12-08T15:13:18.292Z,6.79
2022-12-08T15:14:18.278Z,6.78
2022-12-08T15:15:18.302Z,6.77
2022-12-08T15:16:18.401Z,6.70
2022-12-08T15:17:18.316Z,6.68
2022-12-08T15:18:18.299Z,6.67
2022-12-08T15:19:18.331Z,6.62
2022-12-08T15:20:18.353Z,6.60
2022-12-08T15:21:18.344Z,6.57
2022-12-08T15:22:18.321Z,6.53
2022-12-08T15:23:18.355Z,6.46
2022-12-08T15:24:18.294Z,6.41
2022-12-08T15:25:18.344Z,6.39
2022-12-08T15:26:18.388Z,6.37
2022-12-08T15:27:18.345Z,6.34
2022-12-08T15:28:18.364Z,6.30
2022-12-08T15:29:18.342Z,6.25
2022-12-08T15:30:18.684Z,6.20
2022-12-08T15:31:18.441Z,6.17
2022-12-08T15:32:18.318Z,6.14
2022-12-08T15:33:18.380Z,6.10
2022-12-08T15:34:18.313Z,6.07
2022-12-08T15:35:18.378Z,6.06